Main page
METAR-TAF:

METAR-TAF

Airports :

Castres–Mazamet Airport

Castres, France

latitude: 43-33-25N, longitude: 2-17-21E, elevation: 239 m

Current weather observation

The report was made 27 minutes ago, at 05:00 UTC
Wind 4 kt from the West
Temperature 22°C
Humidity 78%
Pressure 1014 hPa
Visibility 10 km or more
no clouds below 1500 m and no cumulonimbus

METAR: LFCK 130500Z AUTO 27004KT CAVOK 22/18 Q1014

Time: 07:27 (05:27 UTC)

Forecast

The report was made 12 hours and 27 minutes ago, at 17:00 UTC
Forecast valid from 12 at 18 UTC to 13 at 03 UTC
Wind 8 kt from the West/Northwest
Visibility 10 km or more
no clouds below 1500 m and no cumulonimbus
Probability 30% :
Temporary
from 12 at 18 UTC to 12 at 19 UTC
Wind 15 kt from variable directions with gusts up to 25 kt
Few clouds at a height of 8000 ft, Cumulonimbus.
Scattered clouds at a height of 12000 ft

TAF: LFCK 121700Z 1218/1303 30008KT CAVOK PROB30 TEMPO 1218/1219 VRB15G25KT FEW080CB SCT120

Weather observations and forecasts of more than 4000 airports (METAR and TAF reports).

The available stations are represented by yellow and red dots on the map.

Hover mouse over dot to see the name of the station.

Then click to see weather observations and forecasts.

To change the map : click on the green buttons with a black cross to zoom in, on the green button with a dash to zoom out, or on the green arrows for adjacent maps.


METAR-TAF: